»·PEaware :: N8BM KGPI-KSEA

N8BM :: KGPI-KSEA

FLIGHT INFORMATION

Flight Status: Arrived
Operator: Privately registered:
United States
More flights under this callsign
Pilot: David J. (24489)
Aircraft: DASSAULT AVIATION FALCON 50
(FA50)
More flights by this aircraft type
Origin: KGPI Glacier Park Intl
United States
Destination: KSEA Seattle-Tacoma Intl
United States
More flights between these airports :: More routes between these airports
Route: +KILLY1 EYESE TEMPL GLASR1
File this flight plan on PilotEdge
Remarks: RMK / SIMBRIEF
Altitude:
(Current/Filed)
39,000ft
Speed:
(Current/Filed)
455kts
Departed: 19-Jan-20 06:21 PM
Arrived: 19-Jan-20 07:30 PM
Distance/Time
Traveled:
328nm/1:09
Distance/Time
To Go:
Arrived

Flight Plot

Page will automatically refresh every two minutes.


Map Options




Map Legend


Flown Route
Filed Route
Departure Airport
Arrival Airport
Navaid (VOR, NDB)
Fix

Horizontal Profiles

Position Reports

Time Latitude Longitude Heading Altitude Ground
Speed
19-Jan-20 18:02 48.311258 -114.251478 217 2980ft 0kts
19-Jan-20 18:03 48.311258 -114.251478 217 2980ft 0kts
19-Jan-20 18:04 48.311258 -114.251478 217 2980ft 0kts
19-Jan-20 18:05 48.311258 -114.251478 217 2980ft 0kts
19-Jan-20 18:06 48.311258 -114.251478 217 2980ft 0kts
19-Jan-20 18:07 48.311258 -114.251478 217 2980ft 0kts
19-Jan-20 18:08 48.311258 -114.251478 217 2980ft 0kts
19-Jan-20 18:09 48.311258 -114.251478 217 2980ft 0kts
19-Jan-20 18:10 48.310859 -114.252153 231 2980ft 4kts
19-Jan-20 18:11 48.309645 -114.254478 211 2980ft 9kts
19-Jan-20 18:12 48.306816 -114.257258 217 2980ft 14kts
19-Jan-20 18:13 48.303768 -114.260508 213 2980ft 13kts
19-Jan-20 18:14 48.300572 -114.263758 214 2980ft 9kts
19-Jan-20 18:15 48.298741 -114.265603 218 2980ft 1kts
19-Jan-20 18:16 48.298442 -114.266221 275 2980ft 0kts
19-Jan-20 18:17 48.298442 -114.266221 275 2980ft 0kts
19-Jan-20 18:18 48.298442 -114.266221 275 2980ft 0kts
19-Jan-20 18:19 48.298502 -114.266416 308 2980ft 5kts
19-Jan-20 18:20 48.311413 -114.254517 35 2981ft 160kts
19-Jan-20 18:21 48.354996 -114.207635 19 6256ft 239kts
19-Jan-20 18:22 48.404892 -114.260832 275 9679ft 250kts
19-Jan-20 18:23 48.427363 -114.353681 287 12493ft 226kts
19-Jan-20 18:24 48.409057 -114.447230 226 15664ft 271kts
19-Jan-20 18:25 48.360350 -114.524417 211 18733ft 253kts
19-Jan-20 18:26 48.286316 -114.532331 189 21861ft 272kts
19-Jan-20 18:27 48.210181 -114.540935 195 24482ft 284kts
19-Jan-20 18:28 48.142326 -114.600252 248 26002ft 307kts
19-Jan-20 18:29 48.117685 -114.734171 258 27214ft 364kts
19-Jan-20 18:30 48.090380 -114.886979 258 29452ft 387kts
19-Jan-20 18:31 48.062930 -115.040325 258 32513ft 374kts
19-Jan-20 18:32 48.036632 -115.186195 258 35389ft 351kts
19-Jan-20 18:33 48.012325 -115.319986 258 38236ft 314kts
19-Jan-20 18:34 47.997842 -115.454353 267 38416ft 348kts
19-Jan-20 18:35 47.990488 -115.606835 267 38412ft 387kts
19-Jan-20 18:36 47.982011 -115.774600 266 38413ft 420kts
19-Jan-20 18:37 47.972763 -115.951689 266 38410ft 434kts
19-Jan-20 18:38 47.963013 -116.132884 266 38411ft 440kts
19-Jan-20 18:39 47.952903 -116.315366 266 38412ft 442kts
19-Jan-20 18:40 47.942488 -116.498033 266 38412ft 441kts
19-Jan-20 18:41 47.931882 -116.678936 265 38412ft 437kts
19-Jan-20 18:42 47.921049 -116.858923 265 38412ft 435kts
19-Jan-20 18:43 47.909924 -117.038873 265 38412ft 434kts
19-Jan-20 18:44 47.898580 -117.217797 264 38412ft 434kts
19-Jan-20 18:45 47.886958 -117.396636 264 38413ft 433kts
19-Jan-20 18:46 47.875068 -117.575247 264 38410ft 434kts
19-Jan-20 18:47 47.862897 -117.753809 263 38403ft 434kts
19-Jan-20 18:48 47.850430 -117.932549 263 38399ft 434kts
19-Jan-20 18:49 47.837682 -118.111245 263 38399ft 434kts
19-Jan-20 18:50 47.824631 -118.290197 263 38399ft 434kts
19-Jan-20 18:51 47.811368 -118.468164 263 38399ft 433kts
19-Jan-20 18:52 47.797835 -118.645989 263 38399ft 432kts
19-Jan-20 18:53 47.784010 -118.823920 262 38399ft 432kts
19-Jan-20 18:54 47.769986 -119.000768 262 38400ft 431kts
19-Jan-20 18:55 47.756541 -119.167352 262 36405ft 375kts
19-Jan-20 18:56 47.744622 -119.312183 261 34881ft 338kts
19-Jan-20 18:57 47.732999 -119.452854 262 32677ft 364kts
19-Jan-20 18:58 47.740033 -119.609172 273 31118ft 392kts
19-Jan-20 18:59 47.752860 -119.771896 272 29312ft 384kts
19-Jan-20 19:00 47.764594 -119.924159 272 26735ft 353kts
19-Jan-20 19:01 47.775065 -120.062156 271 24692ft 322kts
19-Jan-20 19:02 47.784062 -120.182012 270 24329ft 264kts
19-Jan-20 19:03 47.793056 -120.306890 271 22688ft 361kts
19-Jan-20 19:04 47.804050 -120.456915 271 21288ft 353kts
19-Jan-20 19:05 47.813903 -120.594863 270 20131ft 318kts
19-Jan-20 19:06 47.822663 -120.720227 270 19152ft 295kts
19-Jan-20 19:07 47.830855 -120.839376 269 18146ft 285kts
19-Jan-20 19:08 47.838728 -120.955691 269 17143ft 280kts
19-Jan-20 19:09 47.846900 -121.079140 270 16170ft 324kts
19-Jan-20 19:10 47.856028 -121.217782 270 15194ft 347kts
19-Jan-20 19:11 47.865514 -121.364859 271 13964ft 352kts
19-Jan-20 19:12 47.873268 -121.486543 270 12594ft 264kts
19-Jan-20 19:13 47.880027 -121.596244 270 12048ft 268kts
19-Jan-20 19:14 47.877071 -121.708603 241 12051ft 272kts
19-Jan-20 19:15 47.825704 -121.786865 220 12017ft 261kts
19-Jan-20 19:16 47.795219 -121.875828 270 11362ft 253kts
19-Jan-20 19:17 47.806176 -121.977949 275 9680ft 251kts
19-Jan-20 19:18 47.817812 -122.081557 275 8092ft 246kts
19-Jan-20 19:19 47.821463 -122.174985 244 7876ft 226kts
19-Jan-20 19:20 47.789587 -122.256775 235 6590ft 234kts
19-Jan-20 19:21 47.756920 -122.335772 235 6003ft 193kts
19-Jan-20 19:22 47.714669 -122.338580 165 6062ft 179kts
19-Jan-20 19:23 47.661683 -122.316117 165 5343ft 204kts
19-Jan-20 19:24 47.618549 -122.307615 179 3502ft 138kts
19-Jan-20 19:25 47.575629 -122.307808 176 2722ft 165kts
19-Jan-20 19:26 47.532626 -122.307936 176 1350ft 147kts
19-Jan-20 19:27 47.491124 -122.307658 180 951ft 149kts
19-Jan-20 19:28 47.454362 -122.307756 176 437ft 89kts
19-Jan-20 19:29 47.445783 -122.306718 84 436ft 10kts
19-Jan-20 19:30 47.445790 -122.306600 86 436ft 0kts
19-Jan-20 19:31 47.448186 -122.306248 358 436ft 23kts
19-Jan-20 19:32 47.454764 -122.304956 2 436ft 27kts
19-Jan-20 19:33 47.456300 -122.303701 195 436ft 5kts
19-Jan-20 19:34 47.456172 -122.303731 185 436ft 0kts
19-Jan-20 19:35 47.456172 -122.303731 185 436ft 0kts

Navigation Log

Ident Type
Flight plan parsing failed, navigation log unavailable